Time;durP1;ratioP1;P1;durP2;ratioP2;P2;SDS_P1;SDS_P2;PMS_P1;PMS_P2;Temp;Humidity;BMP_temperature;BMP_pressure;BME280_temperature;BME280_humidity;BME280_pressure;Samples;Min_cycle;Max_cycle;Signal;HPM_P1;HPM_P2
2022/07/22 00:00:24;;;;;;;;;;;25.40;81.10;;;;;;4996112;28;19909;-77
2022/07/22 00:02:50;;;;;;;;;;;25.40;80.90;;;;;;5006134;28;19948;-76
2022/07/22 00:05:16;;;;;;;;;;;25.30;80.80;;;;;;5008418;28;19965;-77
2022/07/22 00:07:42;;;;;;;;;;;25.30;80.50;;;;;;4999816;28;19929;-76
2022/07/22 00:10:10;;;;;;;;;;;25.20;80.50;;;;;;5001781;28;19913;-76
2022/07/22 00:12:43;;;;;;;;;;;25.20;81.10;;;;;;5002972;28;19921;-76
2022/07/22 00:15:09;;;;;;;;;;;25.20;81.10;;;;;;5007378;28;20358;-77
2022/07/22 00:17:38;;;;;;;;;;;25.20;81.40;;;;;;5004278;28;19910;-76
2022/07/22 00:20:07;;;;;;;;;;;25.10;82.70;;;;;;5010502;28;19965;-77
2022/07/22 00:22:45;;;;;;;;;;;25.10;84.40;;;;;;5000973;28;19925;-76
2022/07/22 00:25:11;;;;;;;;;;;25.00;84.70;;;;;;5016352;28;19952;-76
2022/07/22 00:27:37;;;;;;;;;;;25.00;84.50;;;;;;5004973;28;19913;-76
2022/07/22 00:30:03;;;;;;;;;;;24.90;84.20;;;;;;5003740;28;19913;-77
2022/07/22 00:32:32;;;;;;;;;;;24.90;84.20;;;;;;5007670;28;19936;-77
2022/07/22 00:34:58;;;;;;;;;;;24.80;84.40;;;;;;5005732;28;19909;-76
2022/07/22 00:37:25;;;;;;;;;;;24.70;84.60;;;;;;5004438;28;19960;-76
2022/07/22 00:39:56;;;;;;;;;;;24.70;85.00;;;;;;5008822;28;19913;-75
2022/07/22 00:42:29;;;;;;;;;;;24.70;85.50;;;;;;5005837;28;19959;-75
2022/07/22 00:44:55;;;;;;;;;;;24.70;85.80;;;;;;5002794;28;19936;-76
2022/07/22 00:47:26;;;;;;;;;;;24.70;86.20;;;;;;5002885;28;19913;-75
2022/07/22 00:49:53;;;;;;;;;;;24.60;86.80;;;;;;5025494;28;19921;-75
2022/07/22 00:52:19;;;;;;;;;;;24.50;87.10;;;;;;5023938;28;19913;-77
2022/07/22 00:54:45;;;;;;;;;;;24.50;87.70;;;;;;5011649;28;19912;-76
2022/07/22 00:57:12;;;;;;;;;;;24.50;87.80;;;;;;5006915;28;19976;-76
2022/07/22 00:59:38;;;;;;;;;;;24.50;88.00;;;;;;5007729;28;19996;-75
2022/07/22 01:02:07;;;;;;;;;;;24.50;88.30;;;;;;5004803;28;19914;-75
2022/07/22 01:04:38;;;;;;;;;;;24.50;88.60;;;;;;5007648;28;19947;-75
2022/07/22 01:07:12;;;;;;;;;;;24.40;88.80;;;;;;5003227;28;19925;-76
2022/07/22 01:09:41;;;;;;;;;;;24.40;89.00;;;;;;5006266;28;20004;-76
2022/07/22 01:12:08;;;;;;;;;;;24.40;89.60;;;;;;5005007;28;19917;-75
2022/07/22 01:14:34;;;;;;;;;;;24.40;89.60;;;;;;5003579;28;19928;-77
2022/07/22 01:17:07;;;;;;;;;;;24.40;89.80;;;;;;5006612;28;19917;-76
2022/07/22 01:19:36;;;;;;;;;;;24.40;89.90;;;;;;5006320;28;20572;-76
2022/07/22 01:22:06;;;;;;;;;;;24.30;90.10;;;;;;5007936;28;20116;-75
2022/07/22 01:24:33;;;;;;;;;;;24.30;90.20;;;;;;5010049;28;19990;-75
2022/07/22 01:27:00;;;;;;;;;;;24.30;90.10;;;;;;5006120;28;19972;-75
2022/07/22 01:29:34;;;;;;;;;;;24.30;90.30;;;;;;5001236;28;19945;-75
2022/07/22 01:32:00;;;;;;;;;;;24.30;90.40;;;;;;5008744;28;20296;-75
2022/07/22 01:34:27;;;;;;;;;;;24.30;90.30;;;;;;5005800;28;19921;-75
2022/07/22 01:36:54;;;;;;;;;;;24.20;90.50;;;;;;5000615;28;19916;-75
2022/07/22 01:39:22;;;;;;;;;;;24.20;90.60;;;;;;5006720;28;20000;-75
2022/07/22 01:41:48;;;;;;;;;;;24.10;90.70;;;;;;4997982;28;19916;-76
2022/07/22 01:44:16;;;;;;;;;;;24.10;90.80;;;;;;5003031;28;19909;-76
2022/07/22 01:46:49;;;;;;;;;;;24.10;90.90;;;;;;5005401;28;19918;-75
2022/07/22 01:49:16;;;;;;;;;;;24.10;91.00;;;;;;5006899;28;19992;-75
2022/07/22 01:51:43;;;;;;;;;;;24.00;91.10;;;;;;5009285;28;20345;-75
2022/07/22 01:54:09;;;;;;;;;;;24.00;91.20;;;;;;5022452;28;19920;-75
2022/07/22 01:56:35;;;;;;;;;;;23.90;91.40;;;;;;5036801;28;19917;-75
2022/07/22 01:59:01;;;;;;;;;;;23.80;91.60;;;;;;5005383;28;19920;-75
2022/07/22 02:01:28;;;;;;;;;;;23.80;91.70;;;;;;5007679;28;19909;-75
2022/07/22 02:03:56;;;;;;;;;;;23.90;91.70;;;;;;5000661;28;19909;-75
2022/07/22 02:06:27;;;;;;;;;;;23.80;91.70;;;;;;5004181;28;19910;-75
2022/07/22 02:08:54;;;;;;;;;;;23.70;91.90;;;;;;5005016;28;20346;-76
2022/07/22 02:11:29;;;;;;;;;;;23.80;91.90;;;;;;5008141;28;19913;-76
2022/07/22 02:14:04;;;;;;;;;;;23.60;92.20;;;;;;5001647;28;19920;-75
2022/07/22 02:16:31;;;;;;;;;;;23.50;92.40;;;;;;5004408;28;19917;-75
2022/07/22 02:19:03;;;;;;;;;;;23.40;92.80;;;;;;5005256;28;19920;-75
2022/07/22 02:21:30;;;;;;;;;;;23.30;93.00;;;;;;5024767;28;19913;-75
2022/07/22 02:24:01;;;;;;;;;;;23.20;93.30;;;;;;5006859;28;19928;-75
2022/07/22 02:26:27;;;;;;;;;;;23.30;93.30;;;;;;5011709;28;20066;-75
2022/07/22 02:28:55;;;;;;;;;;;23.50;93.10;;;;;;4997243;28;19960;-75
2022/07/22 02:31:20;;;;;;;;;;;23.50;93.00;;;;;;5006872;28;19909;-75
2022/07/22 02:33:46;;;;;;;;;;;23.60;92.90;;;;;;4999248;28;20401;-76
2022/07/22 02:36:13;;;;;;;;;;;23.60;92.90;;;;;;5007630;28;20004;-75
2022/07/22 02:38:38;;;;;;;;;;;23.60;92.90;;;;;;5006863;28;19921;-75
2022/07/22 02:41:05;;;;;;;;;;;23.70;93.00;;;;;;5013579;28;19913;-75
2022/07/22 02:43:33;;;;;;;;;;;23.70;92.80;;;;;;5005304;28;19925;-75
2022/07/22 02:45:58;;;;;;;;;;;23.70;92.90;;;;;;5006250;28;19925;-75
2022/07/22 02:48:26;;;;;;;;;;;23.70;93.00;;;;;;5009748;28;19909;-75
2022/07/22 02:50:52;;;;;;;;;;;23.70;93.00;;;;;;5005301;28;19956;-75
2022/07/22 02:53:23;;;;;;;;;;;23.60;93.10;;;;;;5001209;28;19924;-75
2022/07/22 02:55:49;;;;;;;;;;;23.60;93.40;;;;;;5002963;28;19913;-75
2022/07/22 02:58:17;;;;;;;;;;;23.50;93.50;;;;;;5006631;28;19955;-75
2022/07/22 03:00:44;;;;;;;;;;;23.50;93.60;;;;;;5007356;28;20744;-76
2022/07/22 03:03:11;;;;;;;;;;;23.60;93.80;;;;;;5008916;28;19929;-75
2022/07/22 03:05:37;;;;;;;;;;;23.60;93.50;;;;;;5000446;28;20657;-75
2022/07/22 03:08:03;;;;;;;;;;;23.50;93.60;;;;;;5007637;28;19961;-75
2022/07/22 03:10:28;;;;;;;;;;;23.60;93.40;;;;;;5004803;28;19944;-76
2022/07/22 03:13:05;;;;;;;;;;;23.60;93.40;;;;;;5000108;28;19913;-75
2022/07/22 03:15:39;;;;;;;;;;;23.70;93.40;;;;;;5016084;28;19917;-75
2022/07/22 03:18:05;;;;;;;;;;;23.70;93.30;;;;;;5000873;28;19930;-75
2022/07/22 03:20:37;;;;;;;;;;;23.80;93.20;;;;;;5006397;28;19921;-75
2022/07/22 03:23:03;;;;;;;;;;;23.70;93.20;;;;;;5015469;28;20011;-75
2022/07/22 03:25:30;;;;;;;;;;;23.70;93.30;;;;;;5009036;28;19925;-76
2022/07/22 03:28:00;;;;;;;;;;;23.70;93.20;;;;;;5003364;28;19952;-75
2022/07/22 03:30:30;;;;;;;;;;;23.60;93.30;;;;;;4997874;28;19953;-76
2022/07/22 03:32:55;;;;;;;;;;;23.60;93.40;;;;;;5004345;28;20020;-76
2022/07/22 03:35:24;;;;;;;;;;;23.50;93.60;;;;;;5008339;28;20000;-75
2022/07/22 03:37:53;;;;;;;;;;;23.50;93.60;;;;;;5002348;28;19909;-75
2022/07/22 03:40:20;;;;;;;;;;;23.50;93.60;;;;;;5009088;28;20700;-75
2022/07/22 03:42:52;;;;;;;;;;;23.40;93.70;;;;;;5005720;28;19968;-76
2022/07/22 03:45:26;;;;;;;;;;;23.30;93.90;;;;;;5002282;28;19921;-75
2022/07/22 03:47:58;;;;;;;;;;;23.40;94.00;;;;;;5008580;28;19916;-75
2022/07/22 03:50:39;;;;;;;;;;;23.40;94.00;;;;;;5012047;28;19909;-76
2022/07/22 03:53:07;;;;;;;;;;;23.40;93.90;;;;;;5004723;28;20064;-77
2022/07/22 03:55:32;;;;;;;;;;;23.30;94.10;;;;;;5017414;28;20418;-76
2022/07/22 03:57:59;;;;;;;;;;;23.50;94.10;;;;;;5005487;28;20000;-76
2022/07/22 04:00:27;;;;;;;;;;;23.40;94.10;;;;;;5001277;28;19979;-76
2022/07/22 04:02:53;;;;;;;;;;;23.50;94.00;;;;;;5001468;28;19988;-76
2022/07/22 04:05:21;;;;;;;;;;;23.60;93.90;;;;;;5010187;28;20001;-76
2022/07/22 04:07:49;;;;;;;;;;;23.60;93.90;;;;;;4996084;28;19910;-76
2022/07/22 04:10:15;;;;;;;;;;;23.60;94.00;;;;;;5003885;28;19971;-77
2022/07/22 04:12:42;;;;;;;;;;;23.70;93.90;;;;;;5010009;28;20362;-77
2022/07/22 04:15:09;;;;;;;;;;;23.80;93.60;;;;;;5006206;28;19910;-76
2022/07/22 04:17:37;;;;;;;;;;;23.80;93.50;;;;;;5007714;28;20008;-76
2022/07/22 04:20:04;;;;;;;;;;;23.70;93.70;;;;;;5009252;28;19952;-76
2022/07/22 04:22:29;;;;;;;;;;;23.80;93.70;;;;;;5006642;28;19918;-77
2022/07/22 04:24:55;;;;;;;;;;;23.90;93.60;;;;;;5011727;28;19928;-77
2022/07/22 04:27:29;;;;;;;;;;;23.90;93.50;;;;;;5009452;28;19909;-77
2022/07/22 04:29:56;;;;;;;;;;;23.90;93.40;;;;;;5017926;28;19916;-76
2022/07/22 04:32:22;;;;;;;;;;;24.20;93.10;;;;;;5010204;28;19909;-76
2022/07/22 04:34:57;;;;;;;;;;;24.30;92.90;;;;;;5022206;28;19914;-76
2022/07/22 04:37:30;;;;;;;;;;;24.30;92.70;;;;;;5009724;28;20318;-75
2022/07/22 04:39:57;;;;;;;;;;;24.40;92.50;;;;;;5005159;28;19932;-76
2022/07/22 04:42:25;;;;;;;;;;;24.50;92.50;;;;;;5006618;28;19909;-76
2022/07/22 04:44:54;;;;;;;;;;;24.50;92.40;;;;;;5007379;28;19921;-76
2022/07/22 04:47:22;;;;;;;;;;;24.50;92.40;;;;;;5006304;28;19925;-74
2022/07/22 04:49:48;;;;;;;;;;;24.60;92.20;;;;;;5014531;28;19909;-75
2022/07/22 04:52:13;;;;;;;;;;;24.70;92.20;;;;;;5010370;28;20001;-75
2022/07/22 04:54:39;;;;;;;;;;;24.70;92.10;;;;;;5022508;28;19920;-75
2022/07/22 04:57:04;;;;;;;;;;;24.80;92.00;;;;;;5000782;28;19917;-76
2022/07/22 04:59:30;;;;;;;;;;;24.90;91.70;;;;;;5020514;28;19917;-76
2022/07/22 05:01:57;;;;;;;;;;;25.00;91.60;;;;;;5013625;28;20466;-74
2022/07/22 05:04:24;;;;;;;;;;;25.10;91.60;;;;;;5005770;28;20004;-76
2022/07/22 05:06:49;;;;;;;;;;;25.20;91.60;;;;;;5008065;28;20330;-75
2022/07/22 05:09:16;;;;;;;;;;;25.30;91.30;;;;;;5008276;28;19910;-76
2022/07/22 05:11:42;;;;;;;;;;;25.30;91.40;;;;;;5005061;28;19918;-75
2022/07/22 05:14:08;;;;;;;;;;;25.40;91.20;;;;;;5009883;28;19921;-75
2022/07/22 05:16:37;;;;;;;;;;;25.60;91.00;;;;;;5006961;28;19915;-76
2022/07/22 05:19:05;;;;;;;;;;;25.70;90.90;;;;;;5003287;28;19910;-77
2022/07/22 05:21:32;;;;;;;;;;;25.70;90.80;;;;;;5013061;28;20407;-75
2022/07/22 05:24:04;;;;;;;;;;;25.80;91.20;;;;;;4999399;28;20436;-76
2022/07/22 05:26:33;;;;;;;;;;;25.90;90.70;;;;;;5007556;28;19917;-75
2022/07/22 05:28:59;;;;;;;;;;;26.00;90.70;;;;;;5017932;28;19914;-76
2022/07/22 05:31:25;;;;;;;;;;;26.00;91.10;;;;;;5005541;28;19916;-77
2022/07/22 05:33:55;;;;;;;;;;;26.10;90.40;;;;;;5008796;28;19921;-80
2022/07/22 05:36:23;;;;;;;;;;;26.30;90.20;;;;;;5014315;28;20004;-77
2022/07/22 05:38:51;;;;;;;;;;;26.30;90.20;;;;;;5006908;28;19909;-75
2022/07/22 05:41:18;;;;;;;;;;;26.50;89.30;;;;;;5005152;28;20263;-80
2022/07/22 05:43:46;;;;;;;;;;;26.80;89.30;;;;;;5007382;28;19917;-79
2022/07/22 05:46:21;;;;;;;;;;;26.90;88.40;;;;;;5006923;28;19996;-80
2022/07/22 05:48:46;;;;;;;;;;;27.10;88.10;;;;;;5006557;28;20004;-83
2022/07/22 05:51:13;;;;;;;;;;;27.40;87.70;;;;;;5013421;28;19996;-83
2022/07/22 05:53:39;;;;;;;;;;;27.60;85.90;;;;;;5007504;28;19917;-83
2022/07/22 05:56:05;;;;;;;;;;;27.90;85.60;;;;;;5015769;28;19968;-80
2022/07/22 05:58:32;;;;;;;;;;;28.20;84.30;;;;;;5005229;28;19949;-82
2022/07/22 06:00:58;;;;;;;;;;;28.30;83.30;;;;;;5005783;28;19913;-79
2022/07/22 06:03:25;;;;;;;;;;;28.80;82.20;;;;;;5005000;28;19909;-80
2022/07/22 06:05:54;;;;;;;;;;;29.50;80.20;;;;;;5007064;28;19975;-78
2022/07/22 06:08:21;;;;;;;;;;;30.20;77.60;;;;;;5001530;28;19913;-79
2022/07/22 06:10:48;;;;;;;;;;;30.70;75.50;;;;;;5010478;28;19925;-79
2022/07/22 06:13:16;;;;;;;;;;;31.50;73.50;;;;;;5006154;28;19929;-81
2022/07/22 06:15:44;;;;;;;;;;;32.00;70.90;;;;;;5002038;28;19960;-88
2022/07/22 06:18:10;;;;;;;;;;;32.40;69.60;;;;;;5004146;28;19970;-84
2022/07/22 06:20:40;;;;;;;;;;;32.80;68.20;;;;;;5009942;28;19917;-81
2022/07/22 06:23:07;;;;;;;;;;;33.40;66.40;;;;;;5013626;28;20016;-79
2022/07/22 06:25:36;;;;;;;;;;;33.60;65.60;;;;;;5013835;28;19941;-81
2022/07/22 06:28:02;;;;;;;;;;;34.30;63.70;;;;;;5025296;28;19996;-84
2022/07/22 06:30:33;;;;;;;;;;;34.70;61.30;;;;;;5003058;28;20028;-82
2022/07/22 06:33:00;;;;;;;;;;;34.10;60.60;;;;;;5019351;28;19921;-91
2022/07/22 06:35:38;;;;;;;;;;;33.30;62.90;;;;;;5018275;28;19913;-91
2022/07/22 06:38:08;;;;;;;;;;;33.80;62.80;;;;;;5016738;28;19912;-90
2022/07/22 06:40:35;;;;;;;;;;;34.60;60.60;;;;;;5018363;28;19913;-91
2022/07/22 06:43:03;;;;;;;;;;;35.50;58.90;;;;;;5017044;28;20269;-90
2022/07/22 06:45:31;;;;;;;;;;;35.60;57.70;;;;;;5016889;28;20543;-89
2022/07/22 06:48:13;;;;;;;;;;;34.30;59.80;;;;;;5013843;28;20606;-89
2022/07/22 06:50:45;;;;;;;;;;;35.20;58.30;;;;;;5017270;28;19924;-89
2022/07/22 06:53:14;;;;;;;;;;;35.00;57.30;;;;;;5019071;28;19927;-90
2022/07/22 06:55:43;;;;;;;;;;;35.30;56.90;;;;;;5019949;28;19971;-88
2022/07/22 06:58:22;;;;;;;;;;;35.80;55.90;;;;;;5033175;28;19917;-86
2022/07/22 07:00:49;;;;;;;;;;;35.80;55.90;;;;;;5018052;28;20026;-89
2022/07/22 07:03:17;;;;;;;;;;;36.00;55.50;;;;;;5014345;28;19935;-90
2022/07/22 07:05:45;;;;;;;;;;;36.00;54.90;;;;;;5014937;28;19920;-93
2022/07/22 07:08:18;;;;;;;;;;;36.40;54.90;;;;;;5034802;28;19917;-93
2022/07/22 07:10:48;;;;;;;;;;;37.00;54.20;;;;;;5011207;28;19924;-92
2022/07/22 07:13:18;;;;;;;;;;;34.30;55.70;;;;;;5010431;28;19914;-92
2022/07/22 07:15:44;;;;;;;;;;;34.20;57.90;;;;;;5019004;28;19972;-92
2022/07/22 07:18:11;;;;;;;;;;;35.50;56.40;;;;;;5018335;28;19995;-91
2022/07/22 07:20:38;;;;;;;;;;;35.40;56.00;;;;;;5026194;28;19932;-92
2022/07/22 07:23:04;;;;;;;;;;;35.40;56.20;;;;;;5006686;28;20634;-92
2022/07/22 07:25:29;;;;;;;;;;;35.60;55.90;;;;;;5011546;28;19921;-92
2022/07/22 07:28:05;;;;;;;;;;;36.10;54.20;;;;;;5013486;28;19916;-93
2022/07/22 07:30:30;;;;;;;;;;;35.90;54.80;;;;;;5016242;28;19949;-91
2022/07/22 07:33:07;;;;;;;;;;;36.50;54.00;;;;;;5017123;28;19948;-91
2022/07/22 07:35:34;;;;;;;;;;;35.80;54.70;;;;;;5020815;28;19910;-92
2022/07/22 07:38:09;;;;;;;;;;;35.60;55.00;;;;;;5017495;28;20266;-92
2022/07/22 07:40:39;;;;;;;;;;;35.80;54.20;;;;;;5018892;28;19924;-92
2022/07/22 07:43:12;;;;;;;;;;;36.20;53.90;;;;;;5020928;28;19913;-90
2022/07/22 07:45:38;;;;;;;;;;;37.30;53.60;;;;;;5018926;28;19909;-91
2022/07/22 07:48:10;;;;;;;;;;;36.80;52.20;;;;;;5020851;28;19913;-91
2022/07/22 07:50:37;;;;;;;;;;;37.20;52.80;;;;;;5015705;28;19909;-94
2022/07/22 07:53:07;;;;;;;;;;;35.90;53.30;;;;;;5016927;28;20929;-93
2022/07/22 07:55:37;;;;;;;;;;;34.40;56.30;;;;;;5012756;28;20410;-93
2022/07/22 07:58:11;;;;;;;;;;;34.20;56.40;;;;;;5019513;28;19967;-93
2022/07/22 08:00:36;;;;;;;;;;;34.30;57.50;;;;;;5019972;28;19936;-92
2022/07/22 08:03:17;;;;;;;;;;;36.10;54.50;;;;;;5020843;28;19931;-91
2022/07/22 08:05:45;;;;;;;;;;;37.60;52.60;;;;;;5017228;28;19916;-92
2022/07/22 08:08:14;;;;;;;;;;;38.00;51.90;;;;;;5013180;28;19917;-95
2022/07/22 08:10:50;;;;;;;;;;;38.50;50.70;;;;;;5013701;28;20302;-92
2022/07/22 08:13:16;;;;;;;;;;;38.70;50.20;;;;;;5020737;28;19923;-94
2022/07/22 08:15:54;;;;;;;;;;;38.80;50.00;;;;;;5015716;28;20008;-95
2022/07/22 08:18:33;;;;;;;;;;;38.80;49.40;;;;;;5015799;28;19914;-93
2022/07/22 08:21:05;;;;;;;;;;;39.80;49.50;;;;;;5014270;28;19943;-94
2022/07/22 08:23:38;;;;;;;;;;;40.20;48.40;;;;;;5011722;28;20605;-94
2022/07/22 08:26:04;;;;;;;;;;;40.00;48.30;;;;;;5017955;28;19924;-90
2022/07/22 08:28:31;;;;;;;;;;;40.10;48.60;;;;;;5017106;28;19917;-91
2022/07/22 08:31:06;;;;;;;;;;;41.00;47.50;;;;;;5017785;28;19956;-92
2022/07/22 08:33:34;;;;;;;;;;;40.10;46.80;;;;;;5018187;28;19921;-94
2022/07/22 08:36:06;;;;;;;;;;;36.60;49.80;;;;;;5013991;28;19981;-93
2022/07/22 08:38:34;;;;;;;;;;;36.50;51.70;;;;;;5013465;28;19943;-93
2022/07/22 08:41:02;;;;;;;;;;;38.10;50.60;;;;;;5016726;28;20135;-92
2022/07/22 08:43:42;;;;;;;;;;;37.50;50.10;;;;;;5015475;28;20004;-92
2022/07/22 08:46:10;;;;;;;;;;;38.70;49.90;;;;;;5015444;28;20011;-95
2022/07/22 08:48:39;;;;;;;;;;;40.00;48.40;;;;;;5020354;28;19963;-94
2022/07/22 08:51:10;;;;;;;;;;;40.80;46.70;;;;;;5018871;28;19967;-95
2022/07/22 08:53:40;;;;;;;;;;;40.50;46.20;;;;;;5014783;28;19953;-96
2022/07/22 08:56:06;;;;;;;;;;;40.70;47.20;;;;;;5018312;28;19914;-96
2022/07/22 08:58:38;;;;;;;;;;;40.20;45.90;;;;;;5023305;28;20655;-93
2022/07/22 09:01:36;;;;;;;;;;;39.80;47.50;;;;;;5019925;28;19989;-96
2022/07/22 09:04:08;;;;;;;;;;;40.00;47.40;;;;;;5021386;28;20285;-94
2022/07/22 09:06:47;;;;;;;;;;;39.20;45.80;;;;;;5019580;28;19995;-94
2022/07/22 09:09:32;;;;;;;;;;;40.00;47.40;;;;;;5021792;28;20342;-94
2022/07/22 09:12:05;;;;;;;;;;;41.20;46.00;;;;;;5006861;28;19917;-83
2022/07/22 09:14:42;;;;;;;;;;;41.40;45.60;;;;;;5008157;28;19932;-77
2022/07/22 09:17:21;;;;;;;;;;;41.20;45.40;;;;;;5003898;28;19925;-78
2022/07/22 09:19:48;;;;;;;;;;;40.60;46.20;;;;;;5010804;28;19920;-77
2022/07/22 09:22:29;;;;;;;;;;;40.50;45.50;;;;;;5003192;28;19910;-76
2022/07/22 09:24:54;;;;;;;;;;;38.70;46.20;;;;;;5009147;28;19909;-76
2022/07/22 09:27:24;;;;;;;;;;;38.50;46.00;;;;;;5022783;28;19929;-76
2022/07/22 09:29:50;;;;;;;;;;;38.90;46.90;;;;;;5005825;28;19944;-76
2022/07/22 09:32:16;;;;;;;;;;;40.80;45.80;;;;;;5017462;28;20270;-75
2022/07/22 09:34:42;;;;;;;;;;;42.10;44.40;;;;;;5008183;28;19928;-82
2022/07/22 09:37:13;;;;;;;;;;;42.60;44.60;;;;;;5019877;28;19997;-81
2022/07/22 09:39:38;;;;;;;;;;;43.30;42.80;;;;;;5002700;28;19919;-76
2022/07/22 09:42:05;;;;;;;;;;;44.20;42.70;;;;;;5015316;28;20298;-76
2022/07/22 09:44:31;;;;;;;;;;;44.60;41.50;;;;;;4998823;28;19919;-75
2022/07/22 09:46:57;;;;;;;;;;;45.00;41.90;;;;;;5006868;28;20519;-75
2022/07/22 09:49:32;;;;;;;;;;;45.10;42.00;;;;;;5007249;28;19916;-76
2022/07/22 09:51:59;;;;;;;;;;;44.70;42.30;;;;;;5004107;28;20265;-75
2022/07/22 09:54:26;;;;;;;;;;;44.70;40.90;;;;;;5005860;28;20089;-75
2022/07/22 09:56:52;;;;;;;;;;;44.80;41.10;;;;;;5008306;28;20310;-75
2022/07/22 09:59:18;;;;;;;;;;;42.90;41.90;;;;;;5008880;28;19956;-75
2022/07/22 10:01:44;;;;;;;;;;;42.60;41.60;;;;;;5005657;28;20227;-75
2022/07/22 10:04:10;;;;;;;;;;;41.50;42.20;;;;;;5005364;28;19917;-75
2022/07/22 10:06:37;;;;;;;;;;;40.70;43.40;;;;;;5008460;28;19967;-75
2022/07/22 10:09:03;;;;;;;;;;;39.60;43.80;;;;;;5008837;28;20314;-75
2022/07/22 10:11:30;;;;;;;;;;;39.50;45.10;;;;;;5007063;28;20305;-76
2022/07/22 10:13:55;;;;;;;;;;;40.10;44.40;;;;;;5009467;28;19963;-75
2022/07/22 10:16:21;;;;;;;;;;;39.70;44.80;;;;;;5010611;28;19914;-74
2022/07/22 10:18:49;;;;;;;;;;;39.10;45.50;;;;;;5007054;28;19909;-74
2022/07/22 10:21:17;;;;;;;;;;;37.80;45.20;;;;;;5009662;28;19909;-74
2022/07/22 10:24:01;;;;;;;;;;;37.70;46.00;;;;;;5002259;28;19916;-74
2022/07/22 10:26:46;;;;;;;;;;;37.80;45.60;;;;;;5012894;28;20016;-75
2022/07/22 10:29:27;;;;;;;;;;;38.00;46.20;;;;;;5010667;28;19924;-75
2022/07/22 10:32:12;;;;;;;;;;;38.40;46.20;;;;;;5007775;28;19909;-75
2022/07/22 10:34:39;;;;;;;;;;;38.90;44.80;;;;;;4994885;28;19928;-76
2022/07/22 10:37:24;;;;;;;;;;;38.60;45.70;;;;;;5023996;28;19913;-76
2022/07/22 10:40:05;;;;;;;;;;;38.60;46.10;;;;;;5000919;28;20542;-75
2022/07/22 10:42:49;;;;;;;;;;;39.40;44.30;;;;;;5001672;28;20362;-76
2022/07/22 10:45:17;;;;;;;;;;;40.30;42.90;;;;;;5003868;28;19920;-76
2022/07/22 10:47:53;;;;;;;;;;;41.30;42.40;;;;;;5004105;28;19913;-76
2022/07/22 10:50:37;;;;;;;;;;;40.50;43.30;;;;;;5007584;28;19910;-76
2022/07/22 10:53:03;;;;;;;;;;;39.50;43.70;;;;;;5012323;28;20273;-75
2022/07/22 10:55:30;;;;;;;;;;;37.50;44.60;;;;;;5010235;28;19940;-76
2022/07/22 10:57:56;;;;;;;;;;;37.90;45.20;;;;;;5002896;28;19948;-76
2022/07/22 11:00:21;;;;;;;;;;;38.50;44.50;;;;;;4999942;28;19937;-76
2022/07/22 11:02:47;;;;;;;;;;;38.90;44.10;;;;;;5009318;28;20357;-76
2022/07/22 11:05:13;;;;;;;;;;;38.20;44.50;;;;;;5014027;28;20539;-77
2022/07/22 11:07:42;;;;;;;;;;;37.80;45.00;;;;;;5004734;28;19917;-77
2022/07/22 11:10:15;;;;;;;;;;;37.70;45.80;;;;;;5001150;28;20015;-76
2022/07/22 11:12:42;;;;;;;;;;;38.10;45.00;;;;;;5002048;28;19925;-76
2022/07/22 11:15:09;;;;;;;;;;;37.00;46.50;;;;;;5001560;28;19987;-76
2022/07/22 11:17:36;;;;;;;;;;;36.60;46.70;;;;;;5001865;28;20274;-76
2022/07/22 11:20:05;;;;;;;;;;;35.50;48.20;;;;;;5009588;28;19913;-76
2022/07/22 11:22:32;;;;;;;;;;;35.80;48.00;;;;;;5007695;28;19913;-76
2022/07/22 11:24:59;;;;;;;;;;;35.00;48.10;;;;;;5008836;28;19908;-77
2022/07/22 11:27:25;;;;;;;;;;;35.20;48.80;;;;;;5006449;28;20275;-76
2022/07/22 11:29:57;;;;;;;;;;;35.80;47.90;;;;;;5007017;28;19909;-77
2022/07/22 11:32:27;;;;;;;;;;;36.10;47.30;;;;;;5011883;28;19995;-76
2022/07/22 11:35:05;;;;;;;;;;;35.10;47.90;;;;;;4999068;28;19995;-76
2022/07/22 11:37:31;;;;;;;;;;;34.60;48.60;;;;;;4998984;28;19913;-76
2022/07/22 11:40:03;;;;;;;;;;;34.00;49.50;;;;;;5000827;28;19917;-76
2022/07/22 11:42:31;;;;;;;;;;;34.40;50.10;;;;;;5008612;28;19916;-76
2022/07/22 11:44:57;;;;;;;;;;;34.80;49.30;;;;;;5010231;28;19913;-76
2022/07/22 11:47:23;;;;;;;;;;;34.80;48.90;;;;;;4999161;28;19913;-75
2022/07/22 11:49:48;;;;;;;;;;;35.30;49.10;;;;;;5012528;28;19916;-76
2022/07/22 11:52:14;;;;;;;;;;;35.70;48.80;;;;;;5008632;28;19916;-75
2022/07/22 11:54:42;;;;;;;;;;;35.80;47.90;;;;;;5006471;28;20496;-79
2022/07/22 11:57:08;;;;;;;;;;;35.80;48.60;;;;;;5007622;28;19913;-76
2022/07/22 11:59:35;;;;;;;;;;;34.90;48.90;;;;;;5007496;28;20416;-78
2022/07/22 12:02:01;;;;;;;;;;;35.20;49.40;;;;;;5006615;28;19935;-76
2022/07/22 12:04:28;;;;;;;;;;;35.00;49.10;;;;;;5008377;28;20405;-80
2022/07/22 12:06:54;;;;;;;;;;;34.70;49.90;;;;;;5001608;28;19916;-82
2022/07/22 12:09:28;;;;;;;;;;;34.60;50.60;;;;;;5004259;28;19983;-80
2022/07/22 12:11:58;;;;;;;;;;;34.40;49.80;;;;;;5003729;28;19998;-82
2022/07/22 12:14:39;;;;;;;;;;;34.00;50.40;;;;;;5021563;28;19921;-83
2022/07/22 12:17:10;;;;;;;;;;;33.60;50.20;;;;;;5003334;28;19913;-80
2022/07/22 12:19:37;;;;;;;;;;;33.60;51.10;;;;;;5008636;28;20662;-83
2022/07/22 12:22:03;;;;;;;;;;;33.60;50.90;;;;;;5013208;28;19913;-82
2022/07/22 12:24:39;;;;;;;;;;;33.70;51.40;;;;;;5005193;28;19916;-80
2022/07/22 12:27:10;;;;;;;;;;;33.40;51.00;;;;;;5005234;28;19917;-81
2022/07/22 12:29:54;;;;;;;;;;;33.60;51.10;;;;;;5020940;28;20004;-82
2022/07/22 12:32:29;;;;;;;;;;;34.00;50.60;;;;;;5008977;28;19920;-83
2022/07/22 12:34:55;;;;;;;;;;;33.90;50.70;;;;;;5012796;28;19914;-81
2022/07/22 12:37:29;;;;;;;;;;;34.10;50.30;;;;;;5010893;28;19910;-79
2022/07/22 12:39:59;;;;;;;;;;;34.20;50.10;;;;;;5011117;28;19909;-80
2022/07/22 12:42:38;;;;;;;;;;;34.00;50.50;;;;;;5011464;28;19910;-79
2022/07/22 12:45:08;;;;;;;;;;;34.40;50.70;;;;;;5005475;28;19921;-81
2022/07/22 12:48:00;;;;;;;;;;;34.00;50.10;;;;;;5005594;28;19991;-80
2022/07/22 12:50:30;;;;;;;;;;;33.60;50.70;;;;;;5015255;28;19916;-82
2022/07/22 12:53:18;;;;;;;;;;;33.80;50.80;;;;;;5004014;28;20238;-83
2022/07/22 12:55:43;;;;;;;;;;;33.80;50.70;;;;;;5017153;28;19917;-82
2022/07/22 12:58:11;;;;;;;;;;;33.40;50.80;;;;;;5006355;28;19917;-81
2022/07/22 13:00:43;;;;;;;;;;;33.70;50.60;;;;;;5006511;28;20004;-83
2022/07/22 13:03:11;;;;;;;;;;;33.60;50.70;;;;;;5012240;28;20444;-83
2022/07/22 13:05:50;;;;;;;;;;;33.60;51.30;;;;;;5011835;28;20009;-83
2022/07/22 13:08:16;;;;;;;;;;;33.60;50.70;;;;;;5012870;28;19910;-81
2022/07/22 13:10:42;;;;;;;;;;;33.60;50.60;;;;;;5006789;28;19964;-83
2022/07/22 13:13:11;;;;;;;;;;;33.80;50.70;;;;;;5006778;28;20426;-82
2022/07/22 13:15:45;;;;;;;;;;;34.10;50.20;;;;;;5007634;28;19961;-82
2022/07/22 13:18:15;;;;;;;;;;;33.90;50.20;;;;;;5006165;28;20382;-82
2022/07/22 13:20:40;;;;;;;;;;;33.90;50.30;;;;;;5012145;28;19967;-81
2022/07/22 13:23:08;;;;;;;;;;;34.10;50.50;;;;;;5012544;28;19913;-81
2022/07/22 13:25:34;;;;;;;;;;;34.40;50.40;;;;;;5009929;28;19913;-82
2022/07/22 13:28:09;;;;;;;;;;;34.60;50.00;;;;;;5009016;28;19933;-81
2022/07/22 13:30:43;;;;;;;;;;;34.80;49.70;;;;;;5012382;28;20000;-82
2022/07/22 13:33:19;;;;;;;;;;;34.90;49.20;;;;;;5013118;28;20363;-81
2022/07/22 13:35:46;;;;;;;;;;;35.10;49.00;;;;;;5010244;28;19914;-82
2022/07/22 13:41:16;;;;;;;;;;;35.30;48.90;;;;;;5005357;28;20476;-83
2022/07/22 13:43:43;;;;;;;;;;;35.30;49.00;;;;;;5018725;28;19923;-81
2022/07/22 13:46:15;;;;;;;;;;;35.00;49.10;;;;;;5008343;28;19921;-82
2022/07/22 13:48:40;;;;;;;;;;;34.80;49.50;;;;;;5005503;28;20243;-82
2022/07/22 13:51:08;;;;;;;;;;;34.80;49.10;;;;;;5012396;28;19920;-83
2022/07/22 13:53:38;;;;;;;;;;;34.90;49.20;;;;;;5008676;28;20837;-82
2022/07/22 13:56:03;;;;;;;;;;;34.70;49.10;;;;;;5012227;28;19909;-82
2022/07/22 13:58:29;;;;;;;;;;;34.50;49.40;;;;;;5004493;28;20353;-82
2022/07/22 14:00:56;;;;;;;;;;;34.40;49.40;;;;;;5005662;28;19916;-82
2022/07/22 14:03:27;;;;;;;;;;;34.40;49.80;;;;;;5011586;28;19952;-82
2022/07/22 14:05:54;;;;;;;;;;;34.40;49.60;;;;;;5010943;28;19909;-82
2022/07/22 14:08:24;;;;;;;;;;;33.80;49.40;;;;;;5006711;28;20008;-81
2022/07/22 14:10:56;;;;;;;;;;;33.80;50.10;;;;;;5005655;28;20366;-82
2022/07/22 14:13:24;;;;;;;;;;;33.70;50.30;;;;;;5008699;28;19936;-81
2022/07/22 14:15:55;;;;;;;;;;;33.90;50.00;;;;;;5002532;28;19933;-83
2022/07/22 14:18:22;;;;;;;;;;;34.10;50.00;;;;;;5002484;28;19917;-81
2022/07/22 14:20:48;;;;;;;;;;;34.00;50.00;;;;;;5018118;28;20497;-83
2022/07/22 14:23:23;;;;;;;;;;;34.10;50.40;;;;;;4998708;28;19909;-80
2022/07/22 14:26:00;;;;;;;;;;;34.20;50.20;;;;;;5004665;28;19910;-80
2022/07/22 14:28:31;;;;;;;;;;;34.20;49.80;;;;;;5008763;28;19928;-81
2022/07/22 14:30:57;;;;;;;;;;;34.10;49.70;;;;;;5015279;28;19913;-82